RORT(METAR)
12/04 16:00
RORT 040700Z 04005KT 9999 FEW018 FEW030 26/22 Q1014 RMK A2997=
戻る
トップページへ戻る
IMOC Co,.Ltd.